Portada
METAR-TAF:

METAR-TAF

Aeropuertos :

Aeropuerto de Olbia-Costa Smeralda

Olbia, Italia

latitud: 40-54N, longitud: 009-31E, altitud: 11 m

Observación

El informe se hizo hace 23 minutos, a las 20:50 UTC
Viento 4 kt del sur, variando entre sureste y oeste-suroeste
Temperatura 10°C
Humedad 82%
Presión 1014 hPa
Visibilidad 10 km o más
Nubes dispersas a una altura de 4000 ft

METAR: LIEO 212050Z 18004KT 130V240 9999 SCT040 10/07 Q1014

Hora: 22:13 (21:13 UTC)

Pronóstico

El informe se hizo hace 4 horas y 13 minutos, a las 17:00 UTC
Pronóstico válido del 21 a las 18 UTC al 22 a las 18 UTC
Viento 8 kt del oeste-suroeste
Visibilidad 10 km o más
Nubes dispersas a una altura de 4000 ft

TAF: LIEO 211700Z 2118/2218 25008KT 9999 SCT040

Observaciones y pronósticos meteorológicos de más de 4000 aeropuertos (mensajes METAR y TAF).

Los puntos amarillos y rojos representan las estaciones disponibles.

Ponga el ratón en el punto deseado para ver el nombre de la estación.

Haga clic para ver las observaciones y los pronósticos meteorológicos.

Para cambiar el mapa : haga clic en los botones verdes con una cruz de color negro para hacer un zoom, en el botón verde con un guión para alejar o en las flechas verdes para mapas adyacentes.


METAR-TAF: